America — WD15630 — position and weather

sailwx.info

Track history (hours):
 
Tides and Currents Weather Stations Pressure Air Temp Water Temp Dewpoint Dewpoint Depression Visibility Wind Speed Wind Dir Waves Ship Positions

America

Last reported at 2018-Jul-19 05:59 UTC. Time now 2018-Jul-21 19:35 UTC.
Position N 33°06' W 091°09'.

Length 90 m; draft 4.7 m.

Type: Passenger vessel. MMSI: 367710540.

Date/timePositionNaut miles runAvg speedWind from/ knotsBaromVisibWave heightAir tempDewpointWater temp
2018-Jul-19 05:59N 33°06' W 091°09'3 7.2
2018-Jul-19 05:30N 33°03' W 091°09'4 8.0
2018-Jul-19 04:59N 32°59' W 091°10'12 5.7
2018-Jul-19 02:53N 32°47' W 091°09'6 7.7
2018-Jul-19 02:08N 32°44' W 091°04'3 8.2
2018-Jul-19 01:47N 32°41' W 091°05'3 9.5
2018-Jul-19 01:31N 32°40' W 091°08'4 8.2
2018-Jul-19 01:01N 32°36' W 091°08'4 8.8
2018-Jul-19 00:30N 32°32' W 091°06'4 8.1
2018-Jul-18 23:57N 32°28' W 091°06'4 8.8
2018-Jul-18 23:31N 32°26' W 091°02'4 7.1
2018-Jul-18 23:01N 32°23' W 091°00'3 6.2
2018-Jul-18 22:31N 32°21' W 090°57'3 6.3
2018-Jul-18 22:01N 32°21' W 090°53'0 0.9
2018-Jul-18 21:29N 32°21' W 090°53'0 0.0
2018-Jul-18 20:59N 32°21' W 090°53'0 0.0
2018-Jul-18 20:29N 32°21' W 090°53'0 0.0
2018-Jul-18 19:59N 32°21' W 090°53'0 0.0
2018-Jul-18 19:29N 32°21' W 090°53'0 0.0
2018-Jul-18 18:59N 32°21' W 090°53'0 0.0
2018-Jul-18 18:29N 32°21' W 090°53'0 0.0
2018-Jul-18 17:59N 32°21' W 090°53'0 0.0
2018-Jul-18 17:29N 32°21' W 090°53'0 0.0
2018-Jul-18 16:59N 32°21' W 090°53'0 0.0
2018-Jul-18 16:29N 32°21' W 090°53'0 0.0
2018-Jul-18 15:59N 32°21' W 090°53'0 0.0
2018-Jul-18 15:29N 32°21' W 090°53'0 0.0
2018-Jul-18 14:59N 32°21' W 090°53'0 0.0
2018-Jul-18 14:29N 32°21' W 090°53'0 0.0
2018-Jul-18 13:29N 32°21' W 090°53'0 0.0
2018-Jul-18 13:00N 32°21' W 090°53'2 3.9
2018-Jul-18 12:30N 32°19' W 090°54'3 7.0
2018-Jul-18 12:01N 32°17' W 090°57'4 7.8
2018-Jul-18 11:30N 32°13' W 090°59'5 5.4
2018-Jul-18 10:30N 32°08' W 091°00'2 4.9
2018-Jul-18 10:00N 32°07' W 091°03'3 5.6
2018-Jul-18 09:30N 32°07' W 091°07'5 6.0
2018-Jul-18 08:44N 32°04' W 091°03'1 5.6
2018-Jul-18 08:30N 32°02' W 091°04'3 5.4
2018-Jul-18 08:00N 31°60' W 091°05'5 5.2
2018-Jul-18 07:06N 31°59' W 091°11'1 5.1
2018-Jul-18 06:58N 31°58' W 091°11'6 5.7
2018-Jul-18 05:56N 31°53' W 091°14'3 6.6
2018-Jul-18 05:30N 31°51' W 091°17'4 7.2
2018-Jul-18 05:00N 31°50' W 091°21'5 7.1
2018-Jul-18 04:14N 31°45' W 091°22'3 7.6
2018-Jul-18 03:53N 31°43' W 091°24'  
Track history (hours):
 
Tides and Currents Weather Stations Pressure Air Temp Water Temp Dewpoint Dewpoint Depression Visibility Wind Speed Wind Dir Waves Ship Positions

America

Last reported at 2018-Jul-19 05:59 UTC. Time now 2018-Jul-21 19:35 UTC.
Position N 33°06' W 091°09'.

Length 90 m; draft 4.7 m.

Type: Passenger vessel. MMSI: 367710540.

Date/timePositionNaut miles runAvg speedWind from/ knotsBaromVisibWave heightAir tempDewpointWater temp
2018-Jul-19 05:59N 33°06' W 091°09'3 7.2
2018-Jul-19 05:30N 33°03' W 091°09'4 8.0
2018-Jul-19 04:59N 32°59' W 091°10'12 5.7
2018-Jul-19 02:53N 32°47' W 091°09'6 7.7
2018-Jul-19 02:08N 32°44' W 091°04'3 8.2
2018-Jul-19 01:47N 32°41' W 091°05'3 9.5
2018-Jul-19 01:31N 32°40' W 091°08'4 8.2
2018-Jul-19 01:01N 32°36' W 091°08'4 8.8
2018-Jul-19 00:30N 32°32' W 091°06'4 8.1
2018-Jul-18 23:57N 32°28' W 091°06'4 8.8
2018-Jul-18 23:31N 32°26' W 091°02'4 7.1
2018-Jul-18 23:01N 32°23' W 091°00'3 6.2
2018-Jul-18 22:31N 32°21' W 090°57'3 6.3
2018-Jul-18 22:01N 32°21' W 090°53'0 0.9
2018-Jul-18 21:29N 32°21' W 090°53'0 0.0
2018-Jul-18 20:59N 32°21' W 090°53'0 0.0
2018-Jul-18 20:29N 32°21' W 090°53'0 0.0
2018-Jul-18 19:59N 32°21' W 090°53'0 0.0
2018-Jul-18 19:29N 32°21' W 090°53'0 0.0
2018-Jul-18 18:59N 32°21' W 090°53'0 0.0
2018-Jul-18 18:29N 32°21' W 090°53'0 0.0
2018-Jul-18 17:59N 32°21' W 090°53'0 0.0
2018-Jul-18 17:29N 32°21' W 090°53'0 0.0
2018-Jul-18 16:59N 32°21' W 090°53'0 0.0
2018-Jul-18 16:29N 32°21' W 090°53'0 0.0
2018-Jul-18 15:59N 32°21' W 090°53'0 0.0
2018-Jul-18 15:29N 32°21' W 090°53'0 0.0
2018-Jul-18 14:59N 32°21' W 090°53'0 0.0
2018-Jul-18 14:29N 32°21' W 090°53'0 0.0
2018-Jul-18 13:29N 32°21' W 090°53'0 0.0
2018-Jul-18 13:00N 32°21' W 090°53'2 3.9
2018-Jul-18 12:30N 32°19' W 090°54'3 7.0
2018-Jul-18 12:01N 32°17' W 090°57'4 7.8
2018-Jul-18 11:30N 32°13' W 090°59'5 5.4
2018-Jul-18 10:30N 32°08' W 091°00'2 4.9
2018-Jul-18 10:00N 32°07' W 091°03'3 5.6
2018-Jul-18 09:30N 32°07' W 091°07'5 6.0
2018-Jul-18 08:44N 32°04' W 091°03'1 5.6
2018-Jul-18 08:30N 32°02' W 091°04'3 5.4
2018-Jul-18 08:00N 31°60' W 091°05'5 5.2
2018-Jul-18 07:06N 31°59' W 091°11'1 5.1
2018-Jul-18 06:58N 31°58' W 091°11'6 5.7
2018-Jul-18 05:56N 31°53' W 091°14'3 6.6
2018-Jul-18 05:30N 31°51' W 091°17'4 7.2
2018-Jul-18 05:00N 31°50' W 091°21'5 7.1
2018-Jul-18 04:14N 31°45' W 091°22'3 7.6
2018-Jul-18 03:53N 31°43' W 091°24'  

Dump ship's entire track history